createdAt,value
2022-11-16T00:00:08.215Z,995.73
2022-11-16T00:00:39.798Z,995.73
2022-11-16T00:01:11.686Z,995.63
2022-11-16T00:01:44.022Z,995.63
2022-11-16T00:02:15.975Z,995.63
2022-11-16T00:02:38.677Z,995.63
2022-11-16T00:03:01.190Z,995.63
2022-11-16T00:03:35.812Z,995.63
2022-11-16T00:04:07.921Z,995.73
2022-11-16T00:04:39.703Z,995.73
2022-11-16T00:05:12.130Z,995.63
2022-11-16T00:05:44.097Z,995.63
2022-11-16T00:06:15.977Z,995.63
2022-11-16T00:06:38.835Z,995.83
2022-11-16T00:07:01.514Z,995.83
2022-11-16T00:07:36.193Z,995.83
2022-11-16T00:08:07.690Z,995.63
2022-11-16T00:08:39.859Z,995.63
2022-11-16T00:09:11.780Z,995.73
2022-11-16T00:09:43.796Z,995.73
2022-11-16T00:10:15.733Z,995.73
2022-11-16T00:10:38.523Z,995.63
2022-11-16T00:11:00.914Z,995.63
2022-11-16T00:11:35.911Z,995.63
2022-11-16T00:12:07.838Z,995.63
2022-11-16T00:12:39.873Z,995.63
2022-11-16T00:13:11.683Z,995.63
2022-11-16T00:13:43.800Z,995.63
2022-11-16T00:14:16.100Z,995.63
2022-11-16T00:14:39.187Z,995.53
2022-11-16T00:15:02.080Z,995.53
2022-11-16T00:15:36.048Z,995.53
2022-11-16T00:16:09.324Z,995.53
2022-11-16T00:16:39.858Z,995.53
2022-11-16T00:17:12.011Z,995.53
2022-11-16T00:17:43.866Z,995.53
2022-11-16T00:18:16.119Z,995.53
2022-11-16T00:18:38.515Z,995.53
2022-11-16T00:19:00.748Z,995.53
2022-11-16T00:19:35.812Z,995.53
2022-11-16T00:20:07.876Z,995.63
2022-11-16T00:20:39.972Z,995.63
2022-11-16T00:21:11.894Z,995.43
2022-11-16T00:21:44.154Z,995.43
2022-11-16T00:22:16.146Z,995.43
2022-11-16T00:22:39.083Z,995.53
2022-11-16T00:23:01.360Z,995.53
2022-11-16T00:23:35.937Z,995.53
2022-11-16T00:24:07.897Z,995.63
2022-11-16T00:24:40.008Z,995.63
2022-11-16T00:25:11.746Z,995.43
2022-11-16T00:25:43.859Z,995.43
2022-11-16T00:26:15.807Z,995.53
2022-11-16T00:26:39.978Z,995.53
2022-11-16T00:27:02.226Z,995.53
2022-11-16T00:27:35.851Z,995.53
2022-11-16T00:28:07.733Z,995.53
2022-11-16T00:28:39.846Z,995.53
2022-11-16T00:29:12.066Z,995.43
2022-11-16T00:29:43.851Z,995.43
2022-11-16T00:30:15.939Z,995.63
2022-11-16T00:30:39.128Z,995.53
2022-11-16T00:31:01.519Z,995.53
2022-11-16T00:31:35.869Z,995.53
2022-11-16T00:32:07.913Z,995.22
2022-11-16T00:32:39.700Z,995.22
2022-11-16T00:33:11.838Z,995.43
2022-11-16T00:33:43.789Z,995.43
2022-11-16T00:34:15.988Z,995.53
2022-11-16T00:34:39.510Z,995.53
2022-11-16T00:35:01.778Z,995.53
2022-11-16T00:35:35.855Z,995.53
2022-11-16T00:36:07.877Z,995.43
2022-11-16T00:36:40.363Z,995.43
2022-11-16T00:37:11.875Z,995.43
2022-11-16T00:37:44.417Z,995.43
2022-11-16T00:38:15.964Z,995.43
2022-11-16T00:38:38.693Z,995.43
2022-11-16T00:39:01.429Z,995.43
2022-11-16T00:39:35.822Z,995.43
2022-11-16T00:40:07.858Z,995.43
2022-11-16T00:40:39.755Z,995.43
2022-11-16T00:41:11.837Z,995.43
2022-11-16T00:41:43.904Z,995.43
2022-11-16T00:42:15.890Z,995.33
2022-11-16T00:42:38.791Z,995.43
2022-11-16T00:43:01.035Z,995.43
2022-11-16T00:43:35.870Z,995.43
2022-11-16T00:44:08.089Z,995.22
2022-11-16T00:44:39.964Z,995.22
2022-11-16T00:45:11.928Z,995.43
2022-11-16T00:45:43.848Z,995.43
2022-11-16T00:46:15.865Z,995.33
2022-11-16T00:46:38.942Z,995.33
2022-11-16T00:47:01.458Z,995.33
2022-11-16T00:47:35.779Z,995.33
2022-11-16T00:48:08.115Z,995.33
2022-11-16T00:48:39.704Z,995.33
2022-11-16T00:49:12.027Z,995.43
2022-11-16T00:49:44.045Z,995.43
2022-11-16T00:50:16.512Z,995.43
2022-11-16T00:50:38.957Z,995.43
2022-11-16T00:51:01.236Z,995.43
2022-11-16T00:51:35.715Z,995.43
2022-11-16T00:52:07.806Z,995.43
2022-11-16T00:52:39.941Z,995.43
2022-11-16T00:53:11.953Z,995.33
2022-11-16T00:53:43.791Z,995.33
2022-11-16T00:54:15.913Z,995.22
2022-11-16T00:54:38.660Z,995.43
2022-11-16T00:55:01.251Z,995.43
2022-11-16T00:55:35.954Z,995.43
2022-11-16T00:56:07.779Z,995.33
2022-11-16T00:56:39.771Z,995.33
2022-11-16T00:57:11.769Z,995.02
2022-11-16T00:57:43.897Z,995.02
2022-11-16T00:58:15.720Z,995.12
2022-11-16T00:58:38.603Z,995.22
2022-11-16T00:59:00.937Z,995.22
2022-11-16T00:59:36.155Z,995.22
2022-11-16T01:00:07.989Z,995.22
2022-11-16T01:00:39.869Z,995.22
2022-11-16T01:01:13.380Z,995.33
2022-11-16T01:01:44.201Z,995.33
2022-11-16T01:02:15.756Z,995.12
2022-11-16T01:02:39.009Z,995.22
2022-11-16T01:03:01.482Z,995.22
2022-11-16T01:03:35.937Z,995.22
2022-11-16T01:04:07.750Z,995.12
2022-11-16T01:04:40.006Z,995.12
2022-11-16T01:05:11.978Z,995.22
2022-11-16T01:05:43.845Z,995.22
2022-11-16T01:06:15.827Z,995.33
2022-11-16T01:06:38.730Z,995.43
2022-11-16T01:07:01.096Z,995.43
2022-11-16T01:07:36.180Z,995.43
2022-11-16T01:08:07.871Z,995.12
2022-11-16T01:08:39.727Z,995.12
2022-11-16T01:09:11.678Z,995.33
2022-11-16T01:09:43.835Z,995.33
2022-11-16T01:10:16.184Z,995.12
2022-11-16T01:10:38.817Z,995.22
2022-11-16T01:11:01.355Z,995.22
2022-11-16T01:11:35.839Z,995.22
2022-11-16T01:12:07.791Z,995.43
2022-11-16T01:12:39.856Z,995.43
2022-11-16T01:13:11.678Z,995.12
2022-11-16T01:13:44.112Z,995.12
2022-11-16T01:14:15.793Z,995.02
2022-11-16T01:14:38.744Z,995.22
2022-11-16T01:15:02.162Z,995.22
2022-11-16T01:15:35.908Z,995.22
2022-11-16T01:16:09.353Z,995.22
2022-11-16T01:16:39.748Z,995.22
2022-11-16T01:17:11.711Z,995.22
2022-11-16T01:17:43.766Z,995.22
2022-11-16T01:18:16.015Z,995.02
2022-11-16T01:18:39.776Z,995.22
2022-11-16T01:19:02.731Z,995.22
2022-11-16T01:19:35.702Z,995.22
2022-11-16T01:20:07.820Z,995.22
2022-11-16T01:20:39.742Z,995.22
2022-11-16T01:21:11.925Z,995.22
2022-11-16T01:21:43.843Z,995.22
2022-11-16T01:22:15.899Z,995.02
2022-11-16T01:22:39.260Z,995.22
2022-11-16T01:23:01.557Z,995.22
2022-11-16T01:23:35.825Z,995.22
2022-11-16T01:24:07.897Z,995.12
2022-11-16T01:24:39.846Z,995.12
2022-11-16T01:25:12.111Z,995.02
2022-11-16T01:25:43.840Z,995.02
2022-11-16T01:26:15.930Z,994.92
2022-11-16T01:26:38.766Z,994.82
2022-11-16T01:27:01.118Z,994.82
2022-11-16T01:27:37.342Z,994.82
2022-11-16T01:28:07.720Z,994.82
2022-11-16T01:28:39.806Z,994.82
2022-11-16T01:29:11.735Z,995.02
2022-11-16T01:29:43.804Z,995.02
2022-11-16T01:30:15.863Z,995.12
2022-11-16T01:30:39.121Z,994.92
2022-11-16T01:31:01.502Z,994.92
2022-11-16T01:31:35.881Z,994.92
2022-11-16T01:32:07.710Z,995.02
2022-11-16T01:32:39.804Z,995.02
2022-11-16T01:33:11.755Z,995.12
2022-11-16T01:33:44.022Z,995.12
2022-11-16T01:34:15.733Z,994.92
2022-11-16T01:34:38.749Z,995.02
2022-11-16T01:35:00.966Z,995.02
2022-11-16T01:35:35.832Z,995.02
2022-11-16T01:36:07.897Z,994.92
2022-11-16T01:36:39.729Z,994.92
2022-11-16T01:37:11.837Z,995.02
2022-11-16T01:37:43.679Z,995.02
2022-11-16T01:38:15.855Z,994.82
2022-11-16T01:38:38.995Z,994.72
2022-11-16T01:39:01.116Z,994.72
2022-11-16T01:39:35.885Z,994.72
2022-11-16T01:40:13.267Z,994.92
2022-11-16T01:40:39.706Z,994.92
2022-11-16T01:41:11.871Z,994.92
2022-11-16T01:41:44.290Z,994.92
2022-11-16T01:42:15.979Z,994.92
2022-11-16T01:42:38.924Z,994.82
2022-11-16T01:43:01.337Z,994.82
2022-11-16T01:43:35.742Z,994.82
2022-11-16T01:44:07.776Z,994.72
2022-11-16T01:44:39.950Z,994.72
2022-11-16T01:45:11.894Z,994.61
2022-11-16T01:45:43.819Z,994.61
2022-11-16T01:46:15.763Z,994.92
2022-11-16T01:46:38.384Z,994.72
2022-11-16T01:47:00.894Z,994.72
2022-11-16T01:47:35.706Z,994.72
2022-11-16T01:48:08.199Z,994.72
2022-11-16T01:48:39.922Z,994.72
2022-11-16T01:49:11.807Z,994.82
2022-11-16T01:49:43.981Z,994.82
2022-11-16T01:50:15.834Z,994.82
2022-11-16T01:50:38.735Z,994.61
2022-11-16T01:51:01.025Z,994.61
2022-11-16T01:51:35.749Z,994.61
2022-11-16T01:52:07.812Z,994.72
2022-11-16T01:52:39.683Z,994.72
2022-11-16T01:53:12.029Z,994.61
2022-11-16T01:53:43.756Z,994.61
2022-11-16T01:54:15.967Z,994.72
2022-11-16T01:54:38.474Z,994.72
2022-11-16T01:55:00.978Z,994.72
2022-11-16T01:55:36.036Z,994.72
2022-11-16T01:56:08.196Z,994.82
2022-11-16T01:56:39.858Z,994.82
2022-11-16T01:57:12.076Z,994.61
2022-11-16T01:57:43.765Z,994.61
2022-11-16T01:58:15.821Z,994.61
2022-11-16T01:58:39.081Z,994.41
2022-11-16T01:59:01.476Z,994.41
2022-11-16T01:59:36.044Z,994.41
2022-11-16T02:00:08.069Z,994.41
2022-11-16T02:00:39.834Z,994.41
2022-11-16T02:01:12.330Z,994.61
2022-11-16T02:01:43.900Z,994.61
2022-11-16T02:02:19.219Z,994.51
2022-11-16T02:02:38.229Z,994.41
2022-11-16T02:03:03.501Z,994.41
2022-11-16T02:03:35.933Z,994.41
2022-11-16T02:04:07.718Z,994.72
2022-11-16T02:04:39.779Z,994.72
2022-11-16T02:05:11.770Z,994.41
2022-11-16T02:08:09.693Z,994.51
2022-11-16T02:08:39.875Z,994.51
2022-11-16T02:09:12.273Z,994.31
2022-11-16T02:09:43.802Z,994.31
2022-11-16T02:10:15.918Z,994.51
2022-11-16T02:10:38.644Z,994.61
2022-11-16T02:11:01.001Z,994.61
2022-11-16T02:11:35.947Z,994.61
2022-11-16T02:12:07.934Z,994.41
2022-11-16T02:12:39.727Z,994.41
2022-11-16T02:13:11.730Z,994.31
2022-11-16T02:13:43.776Z,994.31
2022-11-16T02:14:15.817Z,994.41
2022-11-16T02:14:39.148Z,994.51
2022-11-16T02:15:02.088Z,994.51
2022-11-16T02:15:35.712Z,994.51
2022-11-16T02:16:09.264Z,994.21
2022-11-16T02:16:39.815Z,994.21
2022-11-16T02:17:11.670Z,994.41
2022-11-16T02:17:44.079Z,994.41
2022-11-16T02:18:15.748Z,994.72
2022-11-16T02:18:38.694Z,994.21
2022-11-16T02:19:01.065Z,994.21
2022-11-16T02:19:35.735Z,994.21
2022-11-16T02:20:07.772Z,994.21
2022-11-16T02:20:39.743Z,994.21
2022-11-16T02:21:11.673Z,994.21
2022-11-16T02:21:43.709Z,994.21
2022-11-16T02:22:16.011Z,994.04
2022-11-16T02:22:39.454Z,994.41
2022-11-16T02:23:01.734Z,994.41
2022-11-16T02:23:35.874Z,994.41
2022-11-16T02:24:07.846Z,994.41
2022-11-16T02:24:39.698Z,994.41
2022-11-16T02:25:11.676Z,994.21
2022-11-16T02:25:43.635Z,994.21
2022-11-16T02:26:15.911Z,994.31
2022-11-16T02:26:38.575Z,994.21
2022-11-16T02:27:00.837Z,994.21
2022-11-16T02:27:35.953Z,994.21
2022-11-16T02:28:07.862Z,994.31
2022-11-16T02:28:39.770Z,994.31
2022-11-16T02:29:12.028Z,994.14
2022-11-16T02:29:43.947Z,994.14
2022-11-16T02:30:15.859Z,994.31
2022-11-16T02:30:38.851Z,994.21
2022-11-16T02:31:01.020Z,994.21
2022-11-16T02:31:35.758Z,994.21
2022-11-16T02:32:07.661Z,994.41
2022-11-16T02:32:39.669Z,994.41
2022-11-16T02:33:11.629Z,994.21
2022-11-16T02:33:43.880Z,994.21
2022-11-16T02:34:15.709Z,994.04
2022-11-16T02:34:38.381Z,994.41
2022-11-16T02:35:00.936Z,994.41
2022-11-16T02:35:35.797Z,994.41
2022-11-16T02:36:07.719Z,994.21
2022-11-16T02:36:40.154Z,994.21
2022-11-16T02:37:12.029Z,994.14
2022-11-16T02:37:43.891Z,994.14
2022-11-16T02:38:15.774Z,994.21
2022-11-16T02:38:40.279Z,994.14
2022-11-16T02:39:02.699Z,994.14
2022-11-16T02:39:35.775Z,994.14
2022-11-16T02:40:23.919Z,994.21
2022-11-16T02:40:46.572Z,994.21
2022-11-16T02:41:09.328Z,994.21
2022-11-16T02:41:43.896Z,994.21
2022-11-16T02:42:16.701Z,994.04
2022-11-16T02:42:39.282Z,994.14
2022-11-16T02:43:02.003Z,994.14
2022-11-16T02:43:35.806Z,994.14
2022-11-16T02:44:07.849Z,994.14
2022-11-16T02:44:39.808Z,994.14
2022-11-16T02:45:11.782Z,994.04
2022-11-16T02:45:44.803Z,994.04
2022-11-16T02:46:15.947Z,994.21
2022-11-16T02:46:38.590Z,994.21
2022-11-16T02:47:02.512Z,994.21
2022-11-16T02:47:35.749Z,994.21
2022-11-16T02:48:08.343Z,994.14
2022-11-16T02:48:39.826Z,994.14
2022-11-16T02:49:11.921Z,994.04
2022-11-16T02:49:43.797Z,994.04
2022-11-16T02:50:16.210Z,994.21
2022-11-16T02:50:38.865Z,994.21
2022-11-16T02:51:02.167Z,994.21
2022-11-16T02:51:35.825Z,994.21
2022-11-16T02:52:07.768Z,994.14
2022-11-16T02:52:39.790Z,994.14
2022-11-16T02:53:12.303Z,994.21
2022-11-16T02:53:44.449Z,994.21
2022-11-16T02:54:15.856Z,994.14
2022-11-16T02:54:38.486Z,994.04
2022-11-16T02:55:01.796Z,994.04
2022-11-16T02:55:36.412Z,994.04
2022-11-16T02:56:08.606Z,994.21
2022-11-16T02:56:39.999Z,994.21
2022-11-16T02:57:11.730Z,993.84
2022-11-16T02:57:43.709Z,993.84
2022-11-16T02:58:16.438Z,994.14
2022-11-16T02:58:39.108Z,994.14
2022-11-16T02:59:01.751Z,994.14
2022-11-16T02:59:35.892Z,994.14
2022-11-16T03:00:08.630Z,994.04
2022-11-16T03:00:39.935Z,994.04
2022-11-16T03:01:12.377Z,994.14
2022-11-16T03:01:43.881Z,994.14
2022-11-16T03:02:15.848Z,994.04
2022-11-16T03:02:38.746Z,993.94
2022-11-16T03:03:01.821Z,993.94
2022-11-16T03:03:36.101Z,993.94
2022-11-16T03:04:07.750Z,994.04
2022-11-16T03:04:40.005Z,994.04
2022-11-16T03:05:11.934Z,994.04
2022-11-16T03:05:45.783Z,994.14
2022-11-16T03:06:18.366Z,994.14
2022-11-16T03:06:38.379Z,993.94
2022-11-16T03:07:03.473Z,993.94
2022-11-16T03:07:36.719Z,993.94
2022-11-16T03:08:08.000Z,994.04
2022-11-16T03:08:40.528Z,994.04
2022-11-16T03:09:12.032Z,993.84
2022-11-16T03:09:44.789Z,993.84
2022-11-16T03:10:15.663Z,993.94
2022-11-16T03:10:38.275Z,994.04
2022-11-16T03:11:04.836Z,994.04
2022-11-16T03:11:40.285Z,994.04
2022-11-16T03:12:07.832Z,993.94
2022-11-16T03:12:39.669Z,993.94
2022-11-16T03:13:11.869Z,993.94
2022-11-16T03:13:46.629Z,993.94
2022-11-16T03:14:16.466Z,994.04
2022-11-16T03:14:39.493Z,993.84
2022-11-16T03:15:02.230Z,993.84
2022-11-16T03:15:36.155Z,993.84
2022-11-16T03:16:10.253Z,994.04
2022-11-16T03:16:40.551Z,994.04
2022-11-16T03:17:12.051Z,993.84
2022-11-16T03:17:43.902Z,993.84
2022-11-16T03:18:15.763Z,993.94
2022-11-16T03:18:38.564Z,993.94
2022-11-16T03:19:01.197Z,993.94
2022-11-16T03:19:35.777Z,993.94
2022-11-16T03:20:08.327Z,994.04
2022-11-16T03:20:39.924Z,994.04
2022-11-16T03:21:12.505Z,994.14
2022-11-16T03:21:43.635Z,994.14
2022-11-16T03:22:15.877Z,993.94
2022-11-16T03:22:38.481Z,994.14
2022-11-16T03:23:00.748Z,994.14
2022-11-16T03:23:35.845Z,994.14
2022-11-16T03:24:09.808Z,993.84
2022-11-16T03:24:39.981Z,993.84
2022-11-16T03:25:11.722Z,994.04
2022-11-16T03:25:43.671Z,994.04
2022-11-16T03:26:16.159Z,993.94
2022-11-16T03:26:39.109Z,993.94
2022-11-16T03:27:01.883Z,993.94
2022-11-16T03:27:36.888Z,993.94
2022-11-16T03:28:07.858Z,994.14
2022-11-16T03:28:39.727Z,994.14
2022-11-16T03:29:12.121Z,993.84
2022-11-16T03:29:43.798Z,993.84
2022-11-16T03:30:17.346Z,994.04
2022-11-16T03:30:38.912Z,993.94
2022-11-16T03:31:04.175Z,993.94
2022-11-16T03:31:36.049Z,993.94
2022-11-16T03:32:08.027Z,993.94
2022-11-16T03:32:40.129Z,993.94
2022-11-16T03:33:12.019Z,993.94
2022-11-16T03:33:46.781Z,993.84
2022-11-16T03:34:31.832Z,993.84
2022-11-16T03:35:08.267Z,993.84
2022-11-16T03:35:36.584Z,993.84
2022-11-16T03:36:08.590Z,993.94
2022-11-16T03:36:39.765Z,993.94
2022-11-16T03:37:13.440Z,993.84
2022-11-16T03:37:43.698Z,993.84
2022-11-16T03:38:16.522Z,993.63
2022-11-16T03:38:39.239Z,993.94
2022-11-16T03:39:02.034Z,993.94
2022-11-16T03:39:36.062Z,993.94
2022-11-16T03:40:07.913Z,994.04
2022-11-16T03:40:39.981Z,994.04
2022-11-16T03:41:12.169Z,993.84
2022-11-16T03:41:46.465Z,993.84
2022-11-16T03:42:16.295Z,993.84
2022-11-16T03:42:38.496Z,993.73
2022-11-16T03:43:01.381Z,993.73
2022-11-16T03:43:35.807Z,993.73
2022-11-16T03:44:08.375Z,994.04
2022-11-16T03:44:39.826Z,994.04
2022-11-16T03:45:17.032Z,993.94
2022-11-16T03:45:44.049Z,993.94
2022-11-16T03:46:16.453Z,993.94
2022-11-16T03:46:39.154Z,993.84
2022-11-16T03:47:01.610Z,993.84
2022-11-16T03:47:36.037Z,993.84
2022-11-16T03:48:08.334Z,994.04
2022-11-16T03:48:39.763Z,994.04
2022-11-16T03:49:12.220Z,994.04
2022-11-16T03:49:44.020Z,994.04
2022-11-16T03:50:16.926Z,993.73
2022-11-16T03:50:39.620Z,993.84
2022-11-16T03:51:02.706Z,993.84
2022-11-16T03:51:35.733Z,993.84
2022-11-16T03:52:07.866Z,993.94
2022-11-16T03:52:39.717Z,993.94
2022-11-16T03:53:12.859Z,993.94
2022-11-16T03:53:44.243Z,993.94
2022-11-16T03:54:15.855Z,993.73
2022-11-16T03:54:38.710Z,993.73
2022-11-16T03:55:01.520Z,993.73
2022-11-16T03:55:36.640Z,993.73
2022-11-16T03:56:07.934Z,993.63
2022-11-16T03:56:40.666Z,993.63
2022-11-16T03:57:11.540Z,993.94
2022-11-16T03:57:45.193Z,993.94
2022-11-16T03:58:15.882Z,993.73
2022-11-16T03:58:38.656Z,993.84
2022-11-16T03:59:00.905Z,993.84
2022-11-16T03:59:35.897Z,993.84
2022-11-16T04:00:08.576Z,993.73
2022-11-16T04:00:39.655Z,993.73
2022-11-16T04:01:11.949Z,993.73
2022-11-16T04:01:45.068Z,993.73
2022-11-16T04:02:15.938Z,993.84
2022-11-16T04:02:38.911Z,993.73
2022-11-16T04:03:03.431Z,993.73
2022-11-16T04:03:37.047Z,993.73
2022-11-16T04:04:08.075Z,993.73
2022-11-16T04:04:40.672Z,993.73
2022-11-16T04:05:11.741Z,993.73
2022-11-16T04:05:43.731Z,993.73
2022-11-16T04:06:15.714Z,994.04
2022-11-16T04:06:39.981Z,993.63
2022-11-16T04:07:01.348Z,993.63
2022-11-16T04:07:35.756Z,993.63
2022-11-16T04:08:08.188Z,993.73
2022-11-16T04:08:39.720Z,993.73
2022-11-16T04:09:19.424Z,993.63
2022-11-16T04:09:39.474Z,993.63
2022-11-16T04:10:11.739Z,993.94
2022-11-16T04:10:43.491Z,993.73
2022-11-16T04:11:19.741Z,993.73
2022-11-16T04:11:42.673Z,993.94
2022-11-16T04:12:05.078Z,993.94
2022-11-16T04:12:39.745Z,993.94
2022-11-16T04:13:11.629Z,993.94
2022-11-16T04:13:43.726Z,993.94
2022-11-16T04:14:15.580Z,993.63
2022-11-16T04:14:38.582Z,993.94
2022-11-16T04:15:02.581Z,993.94
2022-11-16T04:15:35.702Z,993.94
2022-11-16T04:16:10.098Z,993.84
2022-11-16T04:16:39.753Z,993.84
2022-11-16T04:17:11.706Z,993.94
2022-11-16T04:17:43.564Z,993.94
2022-11-16T04:18:15.684Z,994.04
2022-11-16T04:18:38.442Z,993.73
2022-11-16T04:19:00.881Z,993.73
2022-11-16T04:19:35.810Z,993.73
2022-11-16T04:20:09.149Z,993.84
2022-11-16T04:20:39.599Z,993.84
2022-11-16T04:21:11.712Z,993.94
2022-11-16T04:21:43.982Z,993.94
2022-11-16T04:22:15.870Z,993.84
2022-11-16T04:22:38.913Z,993.84
2022-11-16T04:23:00.698Z,993.84
2022-11-16T04:23:35.715Z,993.84
2022-11-16T04:24:07.824Z,993.84
2022-11-16T04:24:39.774Z,993.84
2022-11-16T04:25:11.667Z,993.84
2022-11-16T04:25:43.669Z,993.84
2022-11-16T04:26:15.599Z,993.94
2022-11-16T04:26:40.119Z,993.94
2022-11-16T04:27:00.987Z,993.94
2022-11-16T04:27:35.628Z,993.94
2022-11-16T04:28:07.640Z,993.94
2022-11-16T04:28:39.751Z,993.94
2022-11-16T04:29:11.599Z,993.84
2022-11-16T04:29:43.690Z,993.84
2022-11-16T04:30:15.772Z,994.04
2022-11-16T04:30:38.551Z,993.94
2022-11-16T04:31:00.667Z,993.94
2022-11-16T04:31:35.716Z,993.94
2022-11-16T04:32:09.240Z,993.94
2022-11-16T04:32:39.677Z,993.94
2022-11-16T04:33:11.587Z,993.84
2022-11-16T04:33:43.945Z,993.84
2022-11-16T04:34:16.238Z,994.14
2022-11-16T04:34:38.475Z,994.04
2022-11-16T04:35:00.722Z,994.04
2022-11-16T04:35:35.664Z,994.04
2022-11-16T04:36:07.689Z,994.04
2022-11-16T04:36:40.052Z,994.04
2022-11-16T04:37:11.812Z,994.14
2022-11-16T04:37:44.080Z,994.14
2022-11-16T04:38:15.590Z,993.94
2022-11-16T04:38:38.845Z,993.84
2022-11-16T04:39:01.170Z,993.84
2022-11-16T04:39:37.128Z,993.84
2022-11-16T04:40:07.871Z,993.84
2022-11-16T04:40:39.772Z,993.84
2022-11-16T04:41:11.530Z,994.04
2022-11-16T04:41:43.708Z,994.04
2022-11-16T04:42:15.764Z,993.94
2022-11-16T04:42:38.378Z,994.04
2022-11-16T04:43:00.767Z,994.04
2022-11-16T04:43:35.739Z,994.04
2022-11-16T04:44:07.652Z,993.94
2022-11-16T04:44:39.684Z,993.94
2022-11-16T04:45:12.024Z,994.14
2022-11-16T04:45:43.672Z,994.14
2022-11-16T04:46:17.245Z,993.84
2022-11-16T04:46:38.712Z,993.94
2022-11-16T04:47:01.007Z,993.94
2022-11-16T04:47:35.735Z,993.94
2022-11-16T04:48:09.208Z,993.94
2022-11-16T04:48:39.663Z,993.94
2022-11-16T04:49:11.751Z,993.94
2022-11-16T04:49:43.710Z,993.94
2022-11-16T04:50:16.105Z,993.94
2022-11-16T04:50:39.069Z,993.84
2022-11-16T04:51:01.350Z,993.84
2022-11-16T04:51:35.681Z,993.84
2022-11-16T04:52:07.633Z,993.94
2022-11-16T04:52:39.588Z,993.94
2022-11-16T04:53:12.129Z,993.94
2022-11-16T04:53:43.693Z,993.94
2022-11-16T04:54:15.737Z,994.04
2022-11-16T04:54:38.573Z,993.94
2022-11-16T04:55:01.149Z,993.94
2022-11-16T04:55:35.641Z,993.94
2022-11-16T04:56:07.726Z,993.84
2022-11-16T04:56:39.772Z,993.84
2022-11-16T04:57:11.713Z,994.04
2022-11-16T04:57:43.741Z,994.04
2022-11-16T04:58:15.620Z,994.21
2022-11-16T04:58:38.945Z,994.04
2022-11-16T04:59:01.398Z,994.04
2022-11-16T04:59:35.773Z,994.04
2022-11-16T05:00:11.402Z,993.94
2022-11-16T05:00:39.870Z,993.94
2022-11-16T05:01:11.595Z,994.14
2022-11-16T05:01:43.753Z,994.14
2022-11-16T05:02:15.764Z,994.14
2022-11-16T05:02:40.049Z,994.14
2022-11-16T05:03:01.595Z,994.14
2022-11-16T05:03:35.734Z,994.14
2022-11-16T05:04:07.729Z,994.04
2022-11-16T05:04:39.520Z,994.04
2022-11-16T05:05:11.702Z,993.94
2022-11-16T05:05:43.697Z,993.94
2022-11-16T05:06:15.668Z,993.84
2022-11-16T05:06:39.014Z,994.04
2022-11-16T05:07:01.742Z,994.04
2022-11-16T05:07:36.191Z,994.04
2022-11-16T05:08:09.217Z,993.84
2022-11-16T05:08:40.164Z,993.84
2022-11-16T05:09:11.701Z,994.04
2022-11-16T05:09:43.565Z,994.04
2022-11-16T05:10:15.661Z,993.84
2022-11-16T05:10:38.381Z,993.73
2022-11-16T05:11:00.582Z,993.73
2022-11-16T05:11:36.021Z,993.73
2022-11-16T05:12:07.638Z,993.73
2022-11-16T05:12:39.711Z,993.73
2022-11-16T05:13:11.556Z,993.94
2022-11-16T05:13:47.901Z,993.94
2022-11-16T05:14:15.586Z,993.84
2022-11-16T05:14:39.183Z,993.94
2022-11-16T05:15:02.094Z,993.94
2022-11-16T05:15:35.703Z,993.94
2022-11-16T05:16:07.579Z,993.94
2022-11-16T05:16:41.243Z,993.94
2022-11-16T05:17:11.727Z,993.73
2022-11-16T05:17:43.780Z,993.73
2022-11-16T05:18:15.529Z,993.94
2022-11-16T05:18:38.250Z,993.73
2022-11-16T05:19:00.606Z,993.73
2022-11-16T05:19:35.667Z,993.73
2022-11-16T05:20:07.783Z,993.94
2022-11-16T05:20:39.610Z,993.94
2022-11-16T05:21:12.135Z,993.84
2022-11-16T05:21:43.586Z,993.84
2022-11-16T05:22:15.765Z,993.73
2022-11-16T05:22:39.895Z,993.94
2022-11-16T05:23:02.019Z,993.94
2022-11-16T05:23:35.639Z,993.94
2022-11-16T05:24:07.744Z,993.84
2022-11-16T05:24:39.536Z,993.84
2022-11-16T05:25:11.633Z,993.63
2022-11-16T05:25:43.604Z,993.63
2022-11-16T05:26:15.710Z,993.63
2022-11-16T05:26:41.980Z,993.63
2022-11-16T05:27:01.875Z,993.63
2022-11-16T05:27:35.815Z,993.63
2022-11-16T05:28:07.565Z,993.84
2022-11-16T05:28:39.563Z,993.84
2022-11-16T05:29:11.559Z,993.94
2022-11-16T05:29:43.692Z,993.94
2022-11-16T05:30:15.714Z,993.84
2022-11-16T05:30:38.454Z,994.04
2022-11-16T05:31:00.727Z,994.04
2022-11-16T05:31:40.322Z,994.04
2022-11-16T05:32:07.699Z,994.04
2022-11-16T05:32:40.019Z,994.04
2022-11-16T05:33:11.607Z,994.14
2022-11-16T05:33:43.653Z,994.14
2022-11-16T05:34:15.552Z,993.73
2022-11-16T05:34:41.099Z,994.04
2022-11-16T05:35:01.008Z,994.04
2022-11-16T05:35:37.039Z,994.04
2022-11-16T05:36:07.525Z,993.94
2022-11-16T05:36:39.499Z,993.94
2022-11-16T05:37:11.677Z,993.94
2022-11-16T05:37:43.498Z,993.94
2022-11-16T05:38:16.042Z,994.04
2022-11-16T05:38:39.614Z,993.84
2022-11-16T05:39:01.973Z,993.84
2022-11-16T05:39:35.524Z,993.84
2022-11-16T05:40:07.855Z,993.94
2022-11-16T05:40:39.489Z,993.94
2022-11-16T05:41:11.866Z,994.04
2022-11-16T05:41:43.505Z,994.04
2022-11-16T05:42:15.670Z,994.14
2022-11-16T05:42:38.316Z,993.94
2022-11-16T05:43:00.738Z,993.94
2022-11-16T05:43:35.638Z,993.94
2022-11-16T05:44:09.010Z,994.04
2022-11-16T05:44:39.607Z,994.04
2022-11-16T05:45:11.792Z,994.21
2022-11-16T05:45:44.127Z,994.21
2022-11-16T05:46:15.583Z,994.04
2022-11-16T05:46:38.930Z,993.84
2022-11-16T05:47:01.402Z,993.84
2022-11-16T05:47:35.613Z,993.84
2022-11-16T05:48:09.084Z,994.14
2022-11-16T05:48:39.561Z,994.14
2022-11-16T05:49:11.754Z,993.94
2022-11-16T05:49:43.685Z,993.94
2022-11-16T05:50:15.467Z,994.04
2022-11-16T05:50:42.718Z,994.04
2022-11-16T05:51:19.514Z,994.04
2022-11-16T05:51:42.700Z,993.94
2022-11-16T05:52:04.633Z,993.94
2022-11-16T05:52:39.550Z,993.94
2022-11-16T05:53:11.707Z,994.04
2022-11-16T05:53:43.485Z,994.04
2022-11-16T05:54:15.837Z,994.21
2022-11-16T05:54:39.331Z,993.94
2022-11-16T05:55:01.692Z,993.94
2022-11-16T05:55:35.711Z,993.94
2022-11-16T05:56:07.684Z,994.14
2022-11-16T05:56:39.802Z,994.14
2022-11-16T05:57:11.615Z,994.21
2022-11-16T05:57:43.634Z,994.21
2022-11-16T05:58:15.616Z,994.04
2022-11-16T05:58:38.209Z,994.04
2022-11-16T05:59:00.571Z,994.04
2022-11-16T05:59:35.746Z,994.04
2022-11-16T06:00:08.153Z,994.04
2022-11-16T06:00:39.636Z,994.04
2022-11-16T06:01:11.921Z,994.14
2022-11-16T06:01:43.672Z,994.14
2022-11-16T06:02:15.439Z,994.14
2022-11-16T06:02:38.362Z,994.04
2022-11-16T06:03:00.713Z,994.04
2022-11-16T06:03:35.762Z,994.04
2022-11-16T06:04:09.163Z,994.14
2022-11-16T06:04:39.716Z,994.14
2022-11-16T06:05:11.579Z,994.04
2022-11-16T06:05:43.626Z,994.04
2022-11-16T06:06:15.670Z,993.94
2022-11-16T06:06:38.570Z,994.31
2022-11-16T06:07:01.455Z,994.31
2022-11-16T06:07:35.730Z,994.31
2022-11-16T06:08:07.502Z,994.04
2022-11-16T06:08:39.678Z,994.04
2022-11-16T06:09:11.959Z,994.14
2022-11-16T06:09:43.651Z,994.14
2022-11-16T06:10:15.630Z,994.04
2022-11-16T06:10:39.146Z,994.04
2022-11-16T06:11:01.864Z,994.04
2022-11-16T06:11:36.327Z,994.04
2022-11-16T06:12:01.864Z,993.84
2022-11-16T06:12:40.552Z,993.84
2022-11-16T06:13:11.676Z,993.94
2022-11-16T06:13:44.276Z,993.94
2022-11-16T06:14:16.100Z,993.94
2022-11-16T06:14:38.671Z,994.31
2022-11-16T06:15:01.918Z,994.31
2022-11-16T06:15:41.867Z,994.31
2022-11-16T06:16:07.822Z,994.14
2022-11-16T06:16:40.128Z,994.14
2022-11-16T06:17:11.623Z,994.14